Terminal Aerodrome Forecast
Issued by NWS

Home | Current Version | Previous Version | Text Only | Print | Product List | Glossary On
Versions: 1 2 3 4 5 6 7 8 9 10 11 12 13 14 15 16 17 18 19
000
FTUS46 KSEW 292328
TAFBFI
TAF
KBFI 292328Z 3000/3024 20018G24KT P6SM VCSH SCT018 BKN080
      TEMPO 3000/3003 BKN018 BKN080
     FM300300 19010G17KT P6SM VCSH OVC022
     FM301800 21012KT P6SM VCSH BKN025
     FM302200 21006KT P6SM BKN050=

USA.gov is the U.S. government's official web portal to all federal, state and local government web resources and services.